Time;durP1;ratioP1;P1;durP2;ratioP2;P2;SDS_P1;SDS_P2;PMS_P1;PMS_P2;Temp;Humidity;BMP_temperature;BMP_pressure;BME280_temperature;BME280_humidity;BME280_pressure;Samples;Min_cycle;Max_cycle;Signal;HPM_P1;HPM_P2
2021/04/10 00:01:32;;;;;;;5.77;4.60;;;7.00;95.50;;;;;;5073329;28;20292;-54
2021/04/10 00:03:58;;;;;;;6.40;5.03;;;7.00;95.80;;;;;;5073858;28;20178;-56
2021/04/10 00:06:23;;;;;;;7.37;5.03;;;7.00;95.80;;;;;;5073948;28;20235;-55
2021/04/10 00:08:49;;;;;;;5.73;5.07;;;6.90;95.80;;;;;;5074047;28;20259;-54
2021/04/10 00:11:14;;;;;;;6.70;5.07;;;6.90;96.00;;;;;;5072663;28;20190;-47
2021/04/10 00:13:40;;;;;;;7.27;5.37;;;6.90;96.10;;;;;;5073829;28;20170;-56
2021/04/10 00:16:06;;;;;;;5.57;4.53;;;6.90;96.10;;;;;;5073634;28;20234;-52
2021/04/10 00:18:31;;;;;;;6.33;5.07;;;6.90;96.30;;;;;;5072867;28;20167;-56
2021/04/10 00:20:57;;;;;;;7.10;5.20;;;6.90;96.40;;;;;;5072312;28;20178;-58
2021/04/10 00:23:23;;;;;;;7.17;5.60;;;6.90;96.40;;;;;;5073616;28;20269;-51
2021/04/10 00:25:48;;;;;;;7.70;5.00;;;6.90;96.30;;;;;;5073085;28;20217;-52
2021/04/10 00:28:14;;;;;;;6.60;4.93;;;6.90;96.20;;;;;;5073589;28;20179;-51
2021/04/10 00:30:39;;;;;;;9.30;5.57;;;6.80;96.20;;;;;;5073032;28;20170;-53
2021/04/10 00:33:05;;;;;;;6.47;5.10;;;6.80;96.40;;;;;;5074138;28;20170;-48
2021/04/10 00:35:31;;;;;;;7.20;5.03;;;6.80;96.40;;;;;;5072950;28;20233;-54
2021/04/10 00:37:56;;;;;;;6.63;4.80;;;6.80;96.50;;;;;;5073252;28;20209;-48
2021/04/10 00:40:23;;;;;;;8.40;5.20;;;6.80;96.60;;;;;;5067411;28;20176;-56
2021/04/10 00:42:48;;;;;;;6.83;4.80;;;6.70;96.60;;;;;;5052370;28;20167;-49
2021/04/10 00:45:14;;;;;;;5.83;4.70;;;6.70;96.70;;;;;;5054174;28;20167;-52
2021/04/10 00:47:40;;;;;;;8.33;5.47;;;6.60;96.80;;;;;;5053494;28;20178;-48
2021/04/10 00:50:06;;;;;;;6.70;4.87;;;6.60;96.90;;;;;;5054138;28;20171;-56
2021/04/10 00:52:33;;;;;;;6.03;5.13;;;6.60;97.00;;;;;;5053713;28;20175;-59
2021/04/10 00:55:02;;;;;;;8.00;4.73;;;6.40;97.10;;;;;;5052517;28;20217;-49
2021/04/10 00:57:27;;;;;;;5.40;4.33;;;6.40;97.30;;;;;;5052684;28;20202;-46
2021/04/10 00:59:53;;;;;;;5.10;4.37;;;6.40;97.40;;;;;;5052811;28;20178;-46
2021/04/10 01:02:19;;;;;;;6.47;4.87;;;6.40;97.40;;;;;;5053385;28;20203;-48
2021/04/10 01:04:45;;;;;;;5.23;4.40;;;6.40;97.70;;;;;;5053603;28;20224;-48
2021/04/10 01:07:11;;;;;;;5.77;4.50;;;6.30;97.30;;;;;;5053410;28;20228;-59
2021/04/10 01:09:36;;;;;;;5.47;4.43;;;6.30;97.40;;;;;;5053570;28;20190;-55
2021/04/10 01:12:11;;;;;;;6.77;5.07;;;6.20;97.50;;;;;;5053871;28;20868;-54
2021/04/10 01:15:13;;;;;;;5.90;4.70;;;6.20;97.60;;;;;;5057685;28;20211;-51
2021/04/10 01:17:45;;;;;;;6.00;4.87;;;6.20;97.80;;;;;;5056660;28;20522;-48
2021/04/10 01:20:27;;;;;;;5.97;4.63;;;6.10;97.90;;;;;;5056609;28;20527;-46
2021/04/10 01:23:14;;;;;;;6.17;4.50;;;6.10;97.90;;;;;;5056827;28;20156;-48
2021/04/10 01:25:42;;;;;;;5.73;4.70;;;6.10;98.00;;;;;;5055811;28;20213;-50
2021/04/10 01:28:45;;;;;;;7.57;4.60;;;6.10;97.90;;;;;;5056970;28;20175;-59
2021/04/10 01:31:13;;;;;;;6.13;4.33;;;6.20;97.80;;;;;;5055792;28;20181;-54
2021/04/10 01:33:42;;;;;;;6.07;4.57;;;6.10;98.00;;;;;;5056603;28;20167;-47
2021/04/10 01:36:11;;;;;;;4.90;4.40;;;6.00;98.00;;;;;;5056658;28;20610;-46
2021/04/10 01:38:38;;;;;;;5.93;4.60;;;5.90;98.10;;;;;;5056540;28;20170;-48
2021/04/10 01:41:05;;;;;;;6.70;4.20;;;6.00;98.20;;;;;;5056309;28;20172;-48
2021/04/10 01:43:33;;;;;;;7.10;4.50;;;6.00;98.20;;;;;;5056225;28;20160;-50
2021/04/10 01:46:02;;;;;;;5.90;4.70;;;6.00;98.10;;;;;;5056305;28;20191;-52
2021/04/10 01:48:29;;;;;;;6.63;4.43;;;6.00;98.20;;;;;;5055486;28;20188;-46
2021/04/10 01:50:56;;;;;;;6.73;4.73;;;6.00;98.20;;;;;;5056712;28;20198;-46
2021/04/10 01:53:22;;;;;;;6.17;4.67;;;6.00;98.10;;;;;;5056520;28;20171;-57
2021/04/10 01:55:49;;;;;;;5.60;4.23;;;5.90;98.20;;;;;;5056198;28;20191;-48
2021/04/10 01:58:19;;;;;;;5.00;4.17;;;5.80;98.30;;;;;;5056616;28;20194;-54
2021/04/10 02:00:46;;;;;;;6.23;4.00;;;5.90;98.50;;;;;;5057131;28;20194;-50
2021/04/10 02:03:16;;;;;;;5.73;4.67;;;5.80;98.50;;;;;;5054949;28;20671;-47
2021/04/10 02:05:42;;;;;;;6.97;4.57;;;5.80;98.50;;;;;;5056110;28;20248;-46
2021/04/10 02:08:09;;;;;;;7.07;4.80;;;5.90;98.50;;;;;;5055311;28;20648;-46
2021/04/10 02:10:35;;;;;;;6.60;4.77;;;5.80;98.60;;;;;;5056405;28;20175;-46
2021/04/10 02:13:01;;;;;;;5.73;4.57;;;5.80;98.80;;;;;;5054883;28;20191;-47
2021/04/10 02:15:26;;;;;;;6.50;4.23;;;5.80;98.80;;;;;;5055828;28;20202;-55
2021/04/10 02:17:55;;;;;;;5.60;4.33;;;5.80;98.80;;;;;;5055735;28;20167;-57
2021/04/10 02:20:22;;;;;;;5.80;4.37;;;5.80;98.90;;;;;;5055153;28;20648;-52
2021/04/10 02:22:51;;;;;;;5.60;4.40;;;5.90;98.70;;;;;;5056073;28;20179;-46
2021/04/10 02:25:18;;;;;;;5.60;4.60;;;5.80;98.70;;;;;;5057518;28;20186;-47
2021/04/10 02:27:44;;;;;;;5.93;4.40;;;5.80;98.80;;;;;;5075976;28;20167;-53
2021/04/10 02:30:10;;;;;;;6.73;4.43;;;5.80;98.90;;;;;;5075216;28;20508;-47
2021/04/10 02:32:41;;;;;;;5.33;4.20;;;5.80;99.00;;;;;;5075007;28;20566;-57
2021/04/10 02:35:15;;;;;;;6.07;4.60;;;5.80;99.20;;;;;;5075884;28;20212;-59
2021/04/10 02:37:42;;;;;;;4.43;3.93;;;5.80;98.90;;;;;;5075583;28;20255;-46
2021/04/10 02:40:09;;;;;;;5.17;4.67;;;5.80;99.00;;;;;;5076127;28;20221;-47
2021/04/10 02:42:39;;;;;;;6.53;4.77;;;5.70;98.90;;;;;;5075390;28;20171;-53
2021/04/10 02:45:07;;;;;;;6.17;4.57;;;5.70;99.10;;;;;;5075109;28;20213;-53
2021/04/10 02:47:34;;;;;;;4.77;4.20;;;5.70;99.10;;;;;;5074979;28;20178;-50
2021/04/10 02:50:05;;;;;;;6.47;5.03;;;5.70;99.00;;;;;;5075999;28;20258;-52
2021/04/10 02:52:39;;;;;;;6.27;4.70;;;5.70;99.00;;;;;;5074470;28;20177;-51
2021/04/10 02:55:07;;;;;;;4.73;4.17;;;5.60;99.10;;;;;;5075273;28;20724;-53
2021/04/10 02:57:33;;;;;;;5.33;4.40;;;5.60;99.30;;;;;;5074930;28;20282;-49
2021/04/10 03:00:02;;;;;;;7.23;4.60;;;5.60;99.40;;;;;;5075382;28;20171;-47
2021/04/10 03:02:28;;;;;;;7.67;4.87;;;5.50;99.50;;;;;;5074247;28;20657;-46
2021/04/10 03:04:54;;;;;;;6.83;3.80;;;5.50;99.40;;;;;;5075546;28;20173;-56
2021/04/10 03:07:20;;;;;;;4.73;3.90;;;5.40;99.50;;;;;;5073944;28;20190;-48
2021/04/10 03:09:47;;;;;;;4.90;4.20;;;5.40;99.70;;;;;;5058268;28;20182;-57
2021/04/10 03:12:15;;;;;;;5.07;4.30;;;5.40;99.90;;;;;;5062633;28;20283;-46
2021/04/10 03:14:41;;;;;;;6.43;4.10;;;5.40;99.90;;;;;;5063439;28;20261;-51
2021/04/10 03:17:09;;;;;;;4.83;3.97;;;5.40;99.90;;;;;;5060096;28;20301;-47
2021/04/10 03:19:37;;;;;;;5.63;4.30;;;5.50;99.90;;;;;;5057791;28;20191;-58
2021/04/10 03:22:03;;;;;;;6.20;4.03;;;5.50;99.80;;;;;;5074560;28;20183;-54
2021/04/10 03:24:28;;;;;;;5.27;4.13;;;5.50;99.80;;;;;;5074318;28;20190;-52
2021/04/10 03:26:55;;;;;;;6.73;4.43;;;5.50;99.90;;;;;;5073748;28;20252;-50
2021/04/10 03:29:20;;;;;;;4.63;4.00;;;5.50;99.90;;;;;;5062434;28;20186;-46
2021/04/10 03:31:47;;;;;;;5.77;4.17;;;5.50;99.90;;;;;;5063457;28;20190;-51
2021/04/10 03:34:13;;;;;;;6.60;4.50;;;5.50;99.90;;;;;;5063214;28;20186;-50
2021/04/10 03:36:40;;;;;;;6.00;4.00;;;5.50;99.80;;;;;;5064997;28;20290;-51
2021/04/10 03:39:05;;;;;;;6.83;4.27;;;5.50;99.70;;;;;;5061758;28;20654;-52
2021/04/10 03:41:31;;;;;;;6.20;4.17;;;5.40;99.80;;;;;;5058945;28;20194;-53
2021/04/10 03:43:57;;;;;;;4.33;3.80;;;5.30;99.90;;;;;;5061039;28;20602;-57
2021/04/10 03:46:22;;;;;;;7.87;4.07;;;5.30;99.90;;;;;;5061818;28;20206;-50
2021/04/10 03:48:48;;;;;;;6.00;3.93;;;5.30;99.90;;;;;;5065172;28;20178;-47
2021/04/10 03:51:13;;;;;;;5.80;4.37;;;5.20;99.90;;;;;;5065271;28;20186;-52
2021/04/10 03:53:39;;;;;;;6.17;4.40;;;5.30;99.90;;;;;;5053258;28;20293;-51
2021/04/10 03:56:05;;;;;;;4.80;3.90;;;5.30;99.90;;;;;;5053732;28;20593;-47
2021/04/10 03:58:30;;;;;;;7.23;4.20;;;5.30;99.90;;;;;;5058751;28;20178;-54
2021/04/10 04:00:56;;;;;;;4.90;4.00;;;5.20;99.90;;;;;;5062889;28;20185;-54
2021/04/10 04:03:21;;;;;;;4.97;4.20;;;5.30;99.90;;;;;;5074466;28;20174;-55
2021/04/10 04:05:47;;;;;;;5.17;4.30;;;5.30;99.90;;;;;;5072726;28;20190;-46
2021/04/10 04:08:12;;;;;;;5.50;4.30;;;5.30;99.90;;;;;;5062803;28;20589;-51
2021/04/10 04:10:38;;;;;;;7.07;4.57;;;5.30;99.90;;;;;;5072987;28;20163;-47
2021/04/10 04:13:04;;;;;;;6.07;5.10;;;5.20;99.90;;;;;;5070840;28;20194;-47
2021/04/10 04:15:29;;;;;;;6.20;4.73;;;5.20;99.90;;;;;;5064204;28;20255;-53
2021/04/10 04:17:55;;;;;;;5.90;5.10;;;5.20;99.90;;;;;;5057319;28;20635;-48
2021/04/10 04:20:21;;;;;;;8.23;5.30;;;5.10;99.90;;;;;;5053977;28;20179;-53
2021/04/10 04:22:46;;;;;;;7.93;5.20;;;5.20;99.90;;;;;;5053611;28;20629;-48
2021/04/10 04:25:12;;;;;;;10.13;4.77;;;5.30;99.90;;;;;;5053840;28;20638;-46
2021/04/10 04:27:38;;;;;;;6.00;4.90;;;5.40;99.90;;;;;;5053357;28;20265;-51
2021/04/10 04:30:06;;;;;;;6.10;4.60;;;5.50;99.90;;;;;;5053707;28;20190;-47
2021/04/10 04:32:31;;;;;;;6.23;4.37;;;5.50;99.90;;;;;;5052934;28;20187;-50
2021/04/10 04:34:57;;;;;;;5.13;4.50;;;5.50;99.90;;;;;;5053272;28;20175;-50
2021/04/10 04:37:23;;;;;;;7.83;5.57;;;5.50;99.90;;;;;;5053414;28;20223;-46
2021/04/10 04:39:48;;;;;;;7.93;6.17;;;5.50;99.90;;;;;;5052713;28;20178;-47
2021/04/10 04:42:14;;;;;;;8.23;5.80;;;5.50;99.90;;;;;;5053398;28;20250;-47
2021/04/10 04:44:39;;;;;;;6.30;4.83;;;5.40;99.90;;;;;;5053539;28;20244;-48
2021/04/10 04:47:05;;;;;;;6.67;5.03;;;5.40;99.90;;;;;;5055377;28;20195;-55
2021/04/10 04:49:30;;;;;;;8.03;5.70;;;5.40;99.90;;;;;;5057587;28;20578;-53
2021/04/10 04:51:56;;;;;;;7.77;6.63;;;5.50;99.90;;;;;;5057354;28;20205;-58
2021/04/10 04:54:22;;;;;;;11.70;8.63;;;5.50;99.90;;;;;;5057027;28;20199;-51
2021/04/10 04:56:48;;;;;;;12.57;9.00;;;5.50;99.90;;;;;;5062956;28;20566;-51
2021/04/10 04:59:14;;;;;;;9.10;6.60;;;5.50;99.90;;;;;;5074012;28;20182;-48
2021/04/10 05:01:39;;;;;;;9.47;6.77;;;5.40;99.90;;;;;;5076730;28;20178;-53
2021/04/10 05:04:05;;;;;;;17.73;15.03;;;5.40;99.90;;;;;;5077443;28;20175;-50
2021/04/10 05:06:31;;;;;;;18.77;15.33;;;5.50;99.90;;;;;;5077545;28;20292;-47
2021/04/10 05:08:56;;;;;;;21.03;17.63;;;5.50;99.90;;;;;;5077169;28;20259;-47
2021/04/10 05:11:22;;;;;;;9.07;6.83;;;5.50;99.90;;;;;;5075957;28;20194;-55
2021/04/10 05:13:47;;;;;;;7.13;4.73;;;5.60;99.90;;;;;;5077334;28;20182;-52
2021/04/10 05:16:13;;;;;;;6.47;4.53;;;5.60;99.90;;;;;;5071970;28;20206;-46
2021/04/10 05:18:39;;;;;;;6.13;4.57;;;5.70;99.90;;;;;;5065388;28;20182;-53
2021/04/10 05:21:04;;;;;;;6.73;4.50;;;5.70;99.90;;;;;;5056784;28;20654;-51
2021/04/10 05:23:30;;;;;;;6.50;5.07;;;5.80;99.90;;;;;;5073503;28;20273;-54
2021/04/10 05:25:55;;;;;;;9.63;5.10;;;5.80;99.90;;;;;;5076390;28;20202;-47
2021/04/10 05:28:21;;;;;;;6.90;4.93;;;5.90;99.90;;;;;;5077320;28;20272;-47
2021/04/10 05:30:47;;;;;;;6.07;4.87;;;5.90;99.90;;;;;;5076186;28;20638;-55
2021/04/10 05:33:13;;;;;;;6.23;5.00;;;6.10;99.90;;;;;;5076734;28;20185;-49
2021/04/10 05:35:39;;;;;;;6.40;4.03;;;6.30;99.90;;;;;;5059782;28;20211;-46
2021/04/10 05:38:05;;;;;;;6.67;4.87;;;6.30;99.90;;;;;;5057175;28;20520;-51
2021/04/10 05:40:30;;;;;;;6.87;4.47;;;6.40;99.90;;;;;;5056964;28;20187;-48
2021/04/10 05:42:56;;;;;;;6.27;5.00;;;6.40;99.90;;;;;;5055602;28;20201;-50
2021/04/10 05:45:22;;;;;;;6.13;5.33;;;6.50;99.90;;;;;;5057045;28;20178;-52
2021/04/10 05:47:47;;;;;;;6.27;4.77;;;6.60;99.90;;;;;;5055552;28;20175;-55
2021/04/10 05:50:13;;;;;;;6.30;5.20;;;6.70;99.90;;;;;;5056729;28;20607;-46
2021/04/10 05:52:39;;;;;;;6.87;5.20;;;6.90;99.90;;;;;;5067584;28;20171;-47
2021/04/10 05:55:06;;;;;;;6.00;4.90;;;7.00;99.90;;;;;;5075378;28;20190;-53
2021/04/10 05:57:32;;;;;;;8.13;4.90;;;7.10;99.90;;;;;;5055645;28;20225;-47
2021/04/10 05:59:58;;;;;;;8.17;5.13;;;7.20;99.90;;;;;;5071081;28;20171;-51
2021/04/10 06:02:23;;;;;;;7.60;5.27;;;7.30;99.90;;;;;;5076165;28;20619;-56
2021/04/10 06:04:51;;;;;;;5.50;5.00;;;7.30;99.90;;;;;;5067580;28;20187;-47
2021/04/10 06:07:16;;;;;;;4.40;3.60;;;7.40;99.90;;;;;;5055252;28;20213;-46
2021/04/10 06:09:42;;;;;;;4.50;4.10;;;7.60;99.70;;;;;;5067043;28;20190;-46
2021/04/10 06:12:08;;;;;;;5.30;4.10;;;7.60;99.30;;;;;;5075262;28;20183;-48
2021/04/10 06:14:33;;;;;;;5.47;3.77;;;7.70;99.30;;;;;;5064942;28;20185;-48
2021/04/10 06:16:59;;;;;;;5.30;3.80;;;7.80;99.20;;;;;;5059870;28;20199;-54
2021/04/10 06:19:24;;;;;;;4.20;3.80;;;7.90;99.20;;;;;;5074779;28;20179;-48
2021/04/10 06:21:50;;;;;;;5.37;4.20;;;8.00;99.10;;;;;;5086701;28;20301;-52
2021/04/10 06:24:16;;;;;;;6.30;4.43;;;8.00;98.90;;;;;;5062952;28;20179;-54
2021/04/10 06:26:45;;;;;;;6.90;5.20;;;8.10;98.90;;;;;;5077829;28;20661;-54
2021/04/10 06:29:12;;;;;;;6.60;4.13;;;8.20;98.90;;;;;;5086325;28;20212;-48
2021/04/10 06:31:38;;;;;;;6.43;4.47;;;8.30;98.40;;;;;;5069653;28;20227;-48
2021/04/10 06:34:04;;;;;;;5.37;4.13;;;8.30;98.20;;;;;;5076313;28;20695;-46
2021/04/10 06:36:30;;;;;;;6.40;4.13;;;8.40;98.40;;;;;;5068885;28;20207;-46
2021/04/10 06:38:56;;;;;;;7.70;4.27;;;8.50;98.20;;;;;;5084494;28;20181;-47
2021/04/10 06:41:22;;;;;;;4.90;3.97;;;8.60;98.10;;;;;;5094200;28;20254;-47
2021/04/10 06:43:48;;;;;;;4.80;4.10;;;8.60;97.50;;;;;;5080819;28;20166;-56
2021/04/10 06:46:14;;;;;;;5.40;4.00;;;8.50;97.80;;;;;;5076446;28;20201;-57
2021/04/10 06:48:42;;;;;;;5.27;4.13;;;8.60;98.30;;;;;;5073054;28;20181;-51
2021/04/10 06:51:08;;;;;;;5.57;4.33;;;8.60;98.00;;;;;;5072071;28;20533;-58
2021/04/10 06:53:42;;;;;;;6.40;4.43;;;8.50;98.50;;;;;;5059074;28;20573;-54
2021/04/10 06:56:09;;;;;;;5.43;4.37;;;8.50;98.40;;;;;;5065718;28;20202;-59
2021/04/10 06:59:08;;;;;;;5.00;4.40;;;8.60;98.50;;;;;;5068614;28;20171;-51
2021/04/10 07:01:34;;;;;;;5.93;4.97;;;8.90;98.60;;;;;;5058244;28;20190;-54
2021/04/10 07:04:00;;;;;;;5.47;4.70;;;9.00;98.60;;;;;;5063272;28;20179;-49
2021/04/10 07:06:26;;;;;;;6.03;4.87;;;9.10;98.50;;;;;;5065512;28;20210;-59
2021/04/10 07:08:53;;;;;;;7.37;4.50;;;9.20;98.90;;;;;;5056697;28;20178;-56
2021/04/10 07:11:19;;;;;;;5.80;4.67;;;9.20;98.90;;;;;;5059971;28;20649;-57
2021/04/10 07:13:44;;;;;;;9.87;4.30;;;9.30;99.40;;;;;;5059622;28;20651;-57
2021/04/10 07:16:11;;;;;;;5.03;4.53;;;9.60;99.40;;;;;;5064179;28;20205;-54
2021/04/10 07:18:37;;;;;;;6.97;5.07;;;9.70;98.90;;;;;;5058151;28;20607;-46
2021/04/10 07:21:26;;;;;;;5.60;4.83;;;9.80;99.00;;;;;;5069066;28;20670;-47
2021/04/10 07:23:56;;;;;;;5.43;4.30;;;10.00;97.90;;;;;;5058019;28;20178;-55
2021/04/10 07:26:45;;;;;;;5.30;4.57;;;10.20;97.90;;;;;;5053242;28;20206;-50
2021/04/10 07:29:32;;;;;;;5.83;4.60;;;10.40;97.60;;;;;;5073265;28;20498;-48
2021/04/10 07:31:59;;;;;;;6.90;4.57;;;10.70;98.00;;;;;;5076972;28;20174;-49
2021/04/10 07:34:25;;;;;;;6.50;4.60;;;10.80;97.60;;;;;;5068127;28;20182;-48
2021/04/10 07:36:56;;;;;;;6.67;4.37;;;11.00;97.10;;;;;;5056559;28;20223;-49
2021/04/10 07:39:22;;;;;;;5.83;3.93;;;11.20;95.00;;;;;;5063513;28;20182;-58
2021/04/10 07:42:00;;;;;;;5.60;3.87;;;11.30;93.10;;;;;;5060182;28;20528;-56
2021/04/10 07:44:41;;;;;;;6.07;4.07;;;11.10;92.10;;;;;;5053019;28;20187;-48
2021/04/10 07:47:08;;;;;;;5.50;3.70;;;11.10;91.80;;;;;;5055161;28;20682;-51
2021/04/10 07:49:35;;;;;;;5.37;3.67;;;11.10;91.10;;;;;;5062632;28;20298;-55
2021/04/10 07:52:04;;;;;;;6.47;3.80;;;11.10;90.70;;;;;;5058409;28;20269;-49
2021/04/10 07:54:38;;;;;;;6.53;3.90;;;11.20;90.30;;;;;;5058549;28;20187;-49
2021/04/10 07:57:09;;;;;;;7.70;4.80;;;11.20;90.40;;;;;;5057503;28;20259;-50
2021/04/10 07:59:50;;;;;;;5.37;4.00;;;11.20;90.90;;;;;;5074147;28;20174;-57
2021/04/10 08:02:17;;;;;;;4.80;4.10;;;11.30;91.50;;;;;;5058135;28;20182;-58
2021/04/10 08:04:57;;;;;;;7.93;4.33;;;11.40;91.20;;;;;;5055585;28;20199;-51
2021/04/10 08:07:25;;;;;;;6.57;4.30;;;11.40;91.20;;;;;;5054309;28;20213;-51
2021/04/10 08:10:00;;;;;;;4.73;3.97;;;11.50;92.20;;;;;;5054933;28;20254;-54
2021/04/10 08:12:31;;;;;;;6.87;3.97;;;11.60;92.20;;;;;;5052654;28;20577;-47
2021/04/10 08:14:57;;;;;;;5.50;4.10;;;11.70;92.40;;;;;;5054257;28;20171;-58
2021/04/10 08:17:37;;;;;;;6.00;4.00;;;11.90;91.40;;;;;;5053971;28;20215;-51
2021/04/10 08:20:23;;;;;;;4.73;3.83;;;12.20;91.40;;;;;;5055914;28;20190;-57
2021/04/10 08:22:50;;;;;;;4.83;3.70;;;12.40;91.20;;;;;;5053750;28;20210;-51
2021/04/10 08:25:30;;;;;;;4.87;4.20;;;12.40;91.00;;;;;;5054265;28;20212;-53
2021/04/10 08:27:57;;;;;;;8.03;4.30;;;12.60;91.00;;;;;;5058599;28;20668;-54
2021/04/10 08:30:23;;;;;;;6.00;4.07;;;12.80;90.40;;;;;;5053492;28;20198;-48
2021/04/10 08:32:48;;;;;;;5.47;3.87;;;12.90;90.20;;;;;;5052291;28;20239;-46
2021/04/10 08:35:14;;;;;;;4.47;3.67;;;13.00;90.40;;;;;;5068171;28;20637;-50
2021/04/10 08:37:42;;;;;;;5.20;3.83;;;12.90;90.10;;;;;;5073692;28;20543;-51
2021/04/10 08:40:09;;;;;;;6.47;3.50;;;13.00;91.10;;;;;;5072449;28;20186;-57
2021/04/10 08:42:40;;;;;;;5.07;3.80;;;13.00;89.80;;;;;;5073119;28;20530;-49
2021/04/10 08:45:06;;;;;;;4.93;3.87;;;13.10;87.40;;;;;;5075002;28;20277;-56
2021/04/10 08:47:33;;;;;;;4.73;3.90;;;13.10;88.00;;;;;;5073399;28;20178;-55
2021/04/10 08:49:59;;;;;;;7.20;3.67;;;13.20;88.00;;;;;;5073365;28;20191;-56
2021/04/10 08:52:30;;;;;;;5.73;3.93;;;13.40;88.60;;;;;;5073405;28;20260;-55
2021/04/10 08:54:58;;;;;;;5.03;3.50;;;13.50;86.50;;;;;;5060522;28;20355;-56
2021/04/10 08:57:39;;;;;;;5.03;3.70;;;13.60;86.30;;;;;;5067395;28;20199;-47
2021/04/10 09:00:16;;;;;;;5.53;3.70;;;13.70;84.30;;;;;;5052472;28;20177;-55
2021/04/10 09:02:53;;;;;;;6.37;3.90;;;13.70;86.10;;;;;;5061383;28;20181;-53
2021/04/10 09:05:19;;;;;;;5.53;3.67;;;13.70;86.50;;;;;;5074673;28;20179;-58
2021/04/10 09:07:48;;;;;;;4.77;3.83;;;13.70;90.20;;;;;;5073284;28;20246;-54
2021/04/10 09:10:28;;;;;;;6.17;3.60;;;13.90;86.50;;;;;;5060365;28;20541;-47
2021/04/10 09:13:05;;;;;;;4.97;4.10;;;14.20;87.60;;;;;;5065746;28;20191;-53
2021/04/10 09:15:34;;;;;;;6.37;4.40;;;14.40;86.40;;;;;;5059454;28;20236;-52
2021/04/10 09:18:02;;;;;;;5.10;4.00;;;14.50;85.10;;;;;;5071466;28;20209;-51
2021/04/10 09:20:46;;;;;;;5.37;3.90;;;14.50;83.20;;;;;;5066609;28;20169;-51
2021/04/10 09:23:17;;;;;;;5.83;4.10;;;14.80;85.00;;;;;;5059665;28;20273;-53
2021/04/10 09:25:45;;;;;;;5.57;4.13;;;14.90;84.30;;;;;;5058339;28;20217;-46
2021/04/10 09:28:11;;;;;;;4.97;3.53;;;15.10;83.00;;;;;;5064964;28;20266;-55
2021/04/10 09:30:38;;;;;;;6.83;3.80;;;15.10;84.10;;;;;;5062108;28;20282;-48
2021/04/10 09:33:28;;;;;;;5.83;4.13;;;15.30;89.40;;;;;;5065343;28;20221;-48
2021/04/10 09:35:54;;;;;;;4.60;3.93;;;15.50;83.10;;;;;;5063044;28;20222;-47
2021/04/10 09:38:42;;;;;;;5.67;4.03;;;15.80;86.40;;;;;;5060555;28;20179;-53
2021/04/10 09:41:08;;;;;;;5.70;4.00;;;15.90;81.00;;;;;;5066894;28;20175;-55
2021/04/10 09:43:34;;;;;;;5.90;4.07;;;16.00;83.60;;;;;;5070190;28;20174;-47
2021/04/10 09:46:00;;;;;;;5.67;3.70;;;16.30;85.40;;;;;;5065726;28;20213;-59
2021/04/10 09:48:28;;;;;;;5.33;3.93;;;16.60;78.20;;;;;;5064089;28;20214;-50
2021/04/10 09:50:53;;;;;;;5.10;4.03;;;16.80;78.70;;;;;;5067736;28;20187;-48
2021/04/10 09:53:24;;;;;;;5.80;3.73;;;16.80;83.00;;;;;;5063565;28;20167;-50
2021/04/10 09:55:57;;;;;;;5.70;4.20;;;16.70;82.70;;;;;;5066497;28;20198;-56
2021/04/10 09:58:23;;;;;;;5.00;4.20;;;16.80;80.20;;;;;;5065554;28;20543;-48
2021/04/10 10:00:53;;;;;;;6.33;3.90;;;16.80;78.00;;;;;;5063710;28;20658;-57
2021/04/10 10:03:21;;;;;;;7.10;4.30;;;16.90;79.50;;;;;;5065981;28;20187;-56
2021/04/10 10:05:49;;;;;;;7.53;4.00;;;16.90;78.20;;;;;;5061919;28;20199;-48
2021/04/10 10:08:16;;;;;;;6.03;4.00;;;17.00;78.50;;;;;;5064691;28;20168;-48
2021/04/10 10:10:45;;;;;;;5.60;3.77;;;17.00;77.80;;;;;;5066143;28;20202;-49
2021/04/10 10:13:15;;;;;;;6.30;4.03;;;17.10;74.90;;;;;;5064187;28;20192;-56
2021/04/10 10:15:42;;;;;;;4.43;3.93;;;17.30;74.30;;;;;;5065660;28;20196;-53
2021/04/10 10:18:18;;;;;;;6.43;4.00;;;17.40;77.00;;;;;;5065955;28;20224;-57
2021/04/10 10:20:55;;;;;;;4.40;3.90;;;17.40;73.90;;;;;;5058860;28;20263;-50
2021/04/10 10:23:21;;;;;;;4.93;4.13;;;17.50;74.80;;;;;;5056794;28;20567;-54
2021/04/10 10:25:47;;;;;;;6.27;4.10;;;17.60;78.50;;;;;;5055362;28;20301;-52
2021/04/10 10:28:14;;;;;;;6.37;4.73;;;17.80;73.30;;;;;;5054877;28;20258;-59
2021/04/10 10:30:40;;;;;;;6.50;4.30;;;18.00;71.70;;;;;;5066815;28;20181;-58
2021/04/10 10:33:06;;;;;;;5.20;4.30;;;18.10;70.50;;;;;;5074389;28;20206;-57
2021/04/10 10:35:32;;;;;;;6.57;3.63;;;18.50;71.40;;;;;;5075896;28;20248;-54
2021/04/10 10:38:04;;;;;;;5.30;4.33;;;19.00;71.90;;;;;;5075486;28;20159;-47
2021/04/10 10:40:29;;;;;;;4.67;4.17;;;19.10;68.90;;;;;;5057656;28;20274;-57
2021/04/10 10:43:04;;;;;;;7.17;4.30;;;19.40;68.90;;;;;;5055177;28;20258;-53
2021/04/10 10:45:50;;;;;;;7.07;4.20;;;19.50;70.80;;;;;;5059417;28;20216;-46
2021/04/10 10:48:20;;;;;;;4.93;4.20;;;19.50;70.00;;;;;;5075117;28;20614;-58
2021/04/10 10:50:47;;;;;;;5.93;4.10;;;19.70;71.20;;;;;;5075934;28;20179;-55
2021/04/10 10:53:24;;;;;;;5.03;4.13;;;19.80;68.00;;;;;;5074431;28;20198;-45
2021/04/10 10:55:53;;;;;;;6.23;4.23;;;20.00;67.90;;;;;;5075228;28;20267;-46
2021/04/10 10:58:18;;;;;;;5.27;3.80;;;20.20;66.80;;;;;;5074856;28;20170;-46
2021/04/10 11:00:44;;;;;;;4.47;3.53;;;20.60;65.10;;;;;;5075084;28;20174;-53
2021/04/10 11:03:10;;;;;;;5.22;4.43;;;21.00;66.50;;;;;;5074171;28;20656;-57
2021/04/10 11:05:36;;;;;;;6.57;4.10;;;21.50;66.40;;;;;;5074908;28;20192;-45
2021/04/10 11:08:02;;;;;;;7.50;4.10;;;21.90;67.30;;;;;;5074653;28;20676;-55
2021/04/10 11:10:28;;;;;;;4.70;3.90;;;21.60;68.70;;;;;;5074887;28;20651;-53
2021/04/10 11:12:53;;;;;;;7.03;3.97;;;21.40;66.00;;;;;;5074248;28;20178;-55
2021/04/10 11:15:19;;;;;;;5.07;4.40;;;21.50;69.30;;;;;;5073365;28;20657;-48
2021/04/10 11:17:44;;;;;;;5.05;3.88;;;21.90;64.70;;;;;;5074734;28;20202;-57
2021/04/10 11:20:29;;;;;;;5.07;4.57;;;22.20;62.00;;;;;;5075257;28;20178;-47
2021/04/10 11:23:05;;;;;;;6.28;4.18;;;22.00;62.10;;;;;;5073881;28;20174;-57
2021/04/10 11:25:53;;;;;;;6.55;4.20;;;22.20;60.00;;;;;;5074321;28;20190;-47
2021/04/10 11:28:32;;;;;;;4.90;3.80;;;22.70;59.70;;;;;;5075023;28;20177;-56
2021/04/10 11:31:08;;;;;;;5.85;3.72;;;23.10;59.90;;;;;;5073651;28;20193;-58
2021/04/10 11:33:36;;;;;;;7.78;4.45;;;23.60;58.20;;;;;;5074297;28;20193;-58
2021/04/10 11:36:03;;;;;;;6.22;4.07;;;24.00;59.00;;;;;;5074021;28;20226;-50
2021/04/10 11:38:28;;;;;;;7.78;3.85;;;24.40;57.20;;;;;;5073551;28;20167;-57
2021/04/10 11:40:54;;;;;;;5.65;3.92;;;24.70;57.90;;;;;;5074423;28;20173;-57
2021/04/10 11:43:20;;;;;;;5.85;3.92;;;25.20;55.50;;;;;;5073711;28;20239;-49
2021/04/10 11:45:51;;;;;;;5.07;3.53;;;25.70;57.40;;;;;;5074409;28;20213;-47
2021/04/10 11:48:24;;;;;;;5.53;3.65;;;26.50;56.60;;;;;;5074601;28;20170;-49
2021/04/10 11:50:58;;;;;;;3.78;3.20;;;27.60;53.40;;;;;;5073189;28;20224;-46
2021/04/10 11:53:34;;;;;;;4.28;3.50;;;28.90;50.40;;;;;;5074341;28;20221;-56
2021/04/10 11:56:00;;;;;;;3.53;3.08;;;30.10;50.80;;;;;;5073651;28;20210;-58
2021/04/10 11:58:33;;;;;;;5.78;3.00;;;31.10;51.40;;;;;;5074598;28;20699;-55
2021/04/10 12:01:12;;;;;;;4.30;3.40;;;32.90;46.50;;;;;;5073631;28;20680;-48
2021/04/10 12:03:51;;;;;;;4.35;3.28;;;34.50;42.50;;;;;;5074125;28;20173;-47
2021/04/10 12:06:36;;;;;;;4.35;3.05;;;35.10;39.70;;;;;;5073679;28;20585;-58
2021/04/10 12:09:03;;;;;;;3.67;2.80;;;34.70;39.10;;;;;;5073277;28;20174;-47
2021/04/10 12:11:28;;;;;;;5.53;3.67;;;35.80;39.40;;;;;;5074371;28;20518;-47
2021/04/10 12:13:54;;;;;;;5.60;3.35;;;33.60;40.00;;;;;;5072442;28;20677;-60
2021/04/10 12:16:19;;;;;;;3.90;3.50;;;31.60;41.50;;;;;;5074069;28;20198;-48
2021/04/10 12:18:45;;;;;;;3.35;3.05;;;30.50;42.60;;;;;;5074417;28;20585;-53
2021/04/10 12:21:11;;;;;;;3.85;3.20;;;30.00;45.60;;;;;;5072693;28;20174;-49
2021/04/10 12:23:36;;;;;;;4.82;3.58;;;29.30;46.60;;;;;;5073716;28;20228;-55
2021/04/10 12:26:02;;;;;;;5.90;3.60;;;29.40;43.90;;;;;;5074397;28;20198;-47
2021/04/10 12:28:29;;;;;;;7.18;3.47;;;29.40;45.20;;;;;;5073553;28;20179;-48
2021/04/10 12:30:55;;;;;;;4.20;3.30;;;29.70;42.80;;;;;;5072982;28;20281;-57
2021/04/10 12:33:21;;;;;;;3.00;2.70;;;30.80;41.70;;;;;;5073445;28;20174;-50
2021/04/10 12:35:46;;;;;;;3.97;3.58;;;32.40;41.80;;;;;;5073416;28;20213;-58
2021/04/10 12:38:12;;;;;;;5.15;3.85;;;32.60;41.80;;;;;;5073090;28;20197;-49
2021/04/10 12:40:38;;;;;;;3.42;3.13;;;33.10;42.10;;;;;;5074324;28;20269;-46
2021/04/10 12:43:03;;;;;;;7.03;3.50;;;32.80;42.50;;;;;;5072253;28;20193;-58
2021/04/10 12:45:29;;;;;;;5.20;3.70;;;32.70;41.80;;;;;;5072466;28;20206;-60
2021/04/10 12:47:55;;;;;;;5.32;3.38;;;32.50;42.00;;;;;;5073685;28;20178;-59
2021/04/10 12:50:23;;;;;;;8.52;3.72;;;32.20;42.10;;;;;;5072847;28;20183;-54
2021/04/10 12:52:49;;;;;;;5.72;3.80;;;31.60;41.80;;;;;;5072672;28;20259;-55
2021/04/10 12:55:15;;;;;;;4.65;3.35;;;30.80;42.60;;;;;;5073847;28;20635;-47
2021/04/10 12:57:41;;;;;;;3.95;3.28;;;30.30;44.70;;;;;;5073492;28;20210;-54
2021/04/10 13:00:09;;;;;;;4.35;3.90;;;29.50;45.00;;;;;;5073743;28;20206;-58